NCAR-RAP Real-Time Weather Data

Output produced by METARs form (10 April 2020  07:02 UTC)
found at http://weather.rap.ucar.edu/surface/
 
KDCA 100652Z 29018G28KT 10SM FEW080 08/M07 A2958 RMK AO2 PK WND 31031/0603 SLP015 T00831067